createdAt,value
2018-05-06T00:02:13.389Z,3.50
2018-05-06T00:04:40.996Z,3.73
2018-05-06T00:07:08.576Z,3.50
2018-05-06T00:09:36.185Z,3.07
2018-05-06T00:12:03.770Z,3.30
2018-05-06T00:14:31.377Z,2.80
2018-05-06T00:16:58.946Z,3.67
2018-05-06T00:19:26.525Z,3.50
2018-05-06T00:21:54.147Z,3.60
2018-05-06T00:24:21.720Z,3.63
2018-05-06T00:26:49.376Z,3.67
2018-05-06T00:29:17.758Z,3.87
2018-05-06T00:31:45.460Z,3.80
2018-05-06T00:34:13.041Z,4.00
2018-05-06T00:36:40.652Z,3.67
2018-05-06T00:39:08.249Z,4.17
2018-05-06T00:41:36.597Z,4.07
2018-05-06T00:44:05.106Z,3.77
2018-05-06T00:46:32.677Z,4.30
2018-05-06T00:49:01.017Z,4.00
2018-05-06T00:51:29.467Z,3.13
2018-05-06T00:53:57.933Z,3.83
2018-05-06T00:56:26.333Z,4.00
2018-05-06T00:58:53.948Z,3.10
2018-05-06T01:01:21.514Z,4.70
2018-05-06T01:03:49.177Z,4.47
2018-05-06T01:06:17.677Z,3.53
2018-05-06T01:08:45.283Z,3.20
2018-05-06T01:11:13.646Z,3.20
2018-05-06T01:13:41.263Z,3.70
2018-05-06T01:16:08.882Z,3.57
2018-05-06T01:18:36.493Z,3.30
2018-05-06T01:21:04.064Z,3.77
2018-05-06T01:23:31.669Z,3.20
2018-05-06T01:26:00.196Z,3.53
2018-05-06T01:28:27.797Z,3.70
2018-05-06T01:30:56.741Z,3.43
2018-05-06T01:33:25.085Z,3.50
2018-05-06T01:35:52.698Z,3.97
2018-05-06T01:38:20.270Z,3.63
2018-05-06T01:40:47.862Z,3.33
2018-05-06T01:43:15.436Z,3.43
2018-05-06T01:45:43.005Z,2.90
2018-05-06T01:48:10.614Z,3.30
2018-05-06T01:50:39.054Z,3.37
2018-05-06T01:53:06.661Z,3.87
2018-05-06T01:55:34.285Z,3.80
2018-05-06T01:58:01.853Z,3.97
2018-05-06T02:00:29.429Z,4.10
2018-05-06T02:02:57.084Z,3.50
2018-05-06T02:05:24.696Z,3.53
2018-05-06T02:07:52.314Z,4.00
2018-05-06T02:10:20.076Z,4.63
2018-05-06T02:12:47.694Z,3.70
2018-05-06T02:15:15.268Z,3.30
2018-05-06T02:17:42.881Z,3.97
2018-05-06T02:20:10.485Z,3.80
2018-05-06T02:22:38.057Z,4.40
2018-05-06T02:25:05.636Z,3.73
2018-05-06T02:27:33.209Z,4.30
2018-05-06T02:30:00.777Z,3.37
2018-05-06T02:32:28.349Z,3.53
2018-05-06T02:34:56.051Z,4.00
2018-05-06T02:37:23.630Z,4.20
2018-05-06T02:39:51.252Z,4.30
2018-05-06T02:42:18.823Z,3.60
2018-05-06T02:44:46.389Z,3.87
2018-05-06T02:47:13.958Z,3.77
2018-05-06T02:49:41.526Z,3.87
2018-05-06T02:52:09.106Z,4.10
2018-05-06T02:54:36.677Z,4.23
2018-05-06T02:57:04.296Z,3.63
2018-05-06T02:59:31.870Z,4.17
2018-05-06T03:01:59.437Z,3.70
2018-05-06T03:04:27.009Z,4.80
2018-05-06T03:06:54.573Z,3.50
2018-05-06T03:09:22.146Z,3.83
2018-05-06T03:11:49.760Z,4.17
2018-05-06T03:14:17.347Z,4.40
2018-05-06T03:16:44.913Z,4.60
2018-05-06T03:19:12.595Z,4.10
2018-05-06T03:21:40.189Z,3.73
2018-05-06T03:24:07.763Z,4.90
2018-05-06T03:26:35.341Z,3.37
2018-05-06T03:29:02.912Z,4.80
2018-05-06T03:31:30.484Z,4.97
2018-05-06T03:33:58.062Z,3.80
2018-05-06T03:36:25.634Z,4.53
2018-05-06T03:38:53.210Z,3.70
2018-05-06T03:41:20.777Z,4.70
2018-05-06T03:43:48.952Z,5.10
2018-05-06T03:46:16.582Z,4.10
2018-05-06T03:48:44.133Z,4.97
2018-05-06T03:51:11.705Z,4.80
2018-05-06T03:53:39.325Z,5.80
2018-05-06T03:59:29.789Z,3.93
2018-05-06T04:05:09.281Z,4.80
2018-05-06T04:07:36.861Z,4.50
2018-05-06T04:10:04.502Z,5.57
2018-05-06T04:12:32.146Z,4.80
2018-05-06T04:14:59.765Z,4.10
2018-05-06T04:17:27.334Z,4.10
2018-05-06T04:19:54.905Z,5.90
2018-05-06T04:22:22.478Z,4.30
2018-05-06T04:24:50.051Z,4.40
2018-05-06T04:27:17.626Z,4.90
2018-05-06T04:29:45.195Z,4.33
2018-05-06T04:32:12.777Z,4.83
2018-05-06T04:34:40.352Z,5.30
2018-05-06T04:37:07.941Z,5.23
2018-05-06T04:39:35.510Z,4.47
2018-05-06T04:42:03.081Z,3.80
2018-05-06T04:44:30.654Z,4.17
2018-05-06T04:46:58.328Z,5.87
2018-05-06T04:49:25.900Z,4.20
2018-05-06T04:51:53.514Z,5.10
2018-05-06T04:54:21.186Z,4.60
2018-05-06T04:56:48.758Z,4.20
2018-05-06T04:59:16.325Z,4.43
2018-05-06T05:01:43.891Z,5.03
2018-05-06T05:04:11.468Z,4.97
2018-05-06T05:06:39.054Z,4.43
2018-05-06T05:09:06.626Z,4.70
2018-05-06T05:11:34.196Z,5.30
2018-05-06T05:14:01.780Z,5.37
2018-05-06T05:16:29.348Z,4.63
2018-05-06T05:18:56.918Z,4.53
2018-05-06T05:21:24.500Z,5.50
2018-05-06T05:23:52.070Z,4.80
2018-05-06T05:26:19.637Z,4.87
2018-05-06T05:28:47.204Z,4.60
2018-05-06T05:31:14.779Z,5.00
2018-05-06T05:33:42.350Z,4.80
2018-05-06T05:36:10.046Z,5.00
2018-05-06T05:38:37.619Z,4.53
2018-05-06T05:41:05.195Z,5.03
2018-05-06T05:43:32.898Z,4.63
2018-05-06T05:46:00.471Z,4.47
2018-05-06T05:48:28.084Z,4.67
2018-05-06T05:50:55.660Z,4.60
2018-05-06T05:53:23.238Z,4.30
2018-05-06T05:55:50.910Z,6.50
2018-05-06T05:58:18.569Z,4.07
2018-05-06T06:00:46.145Z,5.10
2018-05-06T06:03:13.761Z,5.53
2018-05-06T06:05:41.337Z,5.07
2018-05-06T06:08:08.958Z,4.70
2018-05-06T06:10:36.590Z,4.90
2018-05-06T06:13:05.078Z,4.77
2018-05-06T06:15:32.670Z,4.50
2018-05-06T06:18:00.245Z,4.40
2018-05-06T06:20:27.860Z,3.77
2018-05-06T06:22:55.516Z,5.07
2018-05-06T06:25:23.137Z,4.80
2018-05-06T06:27:51.550Z,3.93
2018-05-06T06:30:19.142Z,3.63
2018-05-06T06:32:46.719Z,3.70
2018-05-06T06:35:14.293Z,6.63
2018-05-06T06:37:41.873Z,12.90
2018-05-06T06:40:09.446Z,4.30
2018-05-06T06:42:37.024Z,3.90
2018-05-06T06:45:04.608Z,4.27
2018-05-06T06:47:32.216Z,3.80
2018-05-06T06:49:59.815Z,4.77
2018-05-06T06:52:27.413Z,3.83
2018-05-06T06:54:55.077Z,3.50
2018-05-06T06:57:22.660Z,3.00
2018-05-06T06:59:50.277Z,3.90
2018-05-06T07:02:17.861Z,3.90
2018-05-06T07:04:45.433Z,3.67
2018-05-06T07:07:13.013Z,4.30
2018-05-06T07:09:40.590Z,3.67
2018-05-06T07:12:08.293Z,4.17
2018-05-06T07:14:35.870Z,3.70
2018-05-06T07:17:03.487Z,3.00
2018-05-06T07:19:31.069Z,2.73
2018-05-06T07:21:59.369Z,3.40
2018-05-06T07:24:26.943Z,3.33
2018-05-06T07:26:54.521Z,3.87
2018-05-06T07:29:23.038Z,3.23
2018-05-06T07:31:50.689Z,4.40
2018-05-06T07:34:18.279Z,3.10
2018-05-06T07:36:45.910Z,3.30
2018-05-06T07:39:13.512Z,3.10
2018-05-06T07:41:41.137Z,3.30
2018-05-06T07:44:08.722Z,5.57
2018-05-06T07:46:36.309Z,5.10
2018-05-06T07:49:04.202Z,2.87
2018-05-06T07:51:31.786Z,12.63
2018-05-06T07:53:59.452Z,2.87
2018-05-06T07:56:27.147Z,2.87
2018-05-06T07:58:54.804Z,3.20
2018-05-06T08:01:22.353Z,3.93
2018-05-06T08:03:49.934Z,3.30
2018-05-06T08:06:17.510Z,3.10
2018-05-06T08:08:45.081Z,2.63
2018-05-06T08:11:12.658Z,2.80
2018-05-06T08:13:40.238Z,2.47
2018-05-06T08:16:07.809Z,2.97
2018-05-06T08:18:35.385Z,2.60
2018-05-06T08:21:04.015Z,2.53
2018-05-06T08:23:31.713Z,2.77
2018-05-06T08:25:59.286Z,2.20
2018-05-06T08:28:26.865Z,2.63
2018-05-06T08:30:54.442Z,2.70
2018-05-06T08:33:22.057Z,2.00
2018-05-06T08:35:49.721Z,2.07
2018-05-06T08:38:17.301Z,2.93
2018-05-06T08:40:44.948Z,2.77
2018-05-06T08:43:13.137Z,2.40
2018-05-06T08:45:40.754Z,3.30
2018-05-06T08:48:08.347Z,2.50
2018-05-06T08:50:35.925Z,2.20
2018-05-06T08:53:03.568Z,2.00
2018-05-06T08:55:31.141Z,1.93
2018-05-06T08:57:58.719Z,2.40
2018-05-06T09:00:26.349Z,2.87
2018-05-06T09:02:54.013Z,2.47
2018-05-06T09:05:21.622Z,2.63
2018-05-06T09:07:49.193Z,2.20
2018-05-06T09:10:16.897Z,2.20
2018-05-06T09:12:44.472Z,2.37
2018-05-06T09:15:12.050Z,2.23
2018-05-06T09:17:39.631Z,1.93
2018-05-06T09:20:07.245Z,2.10
2018-05-06T09:22:34.962Z,2.00
2018-05-06T09:25:02.537Z,2.00
2018-05-06T09:27:30.165Z,1.90
2018-05-06T09:29:57.743Z,2.83
2018-05-06T09:32:25.371Z,2.67
2018-05-06T09:34:52.958Z,2.17
2018-05-06T09:37:20.574Z,2.10
2018-05-06T09:39:48.174Z,2.10
2018-05-06T09:42:15.806Z,1.67
2018-05-06T09:44:43.385Z,1.87
2018-05-06T09:47:11.026Z,2.10
2018-05-06T09:49:38.699Z,1.60
2018-05-06T09:52:06.386Z,2.17
2018-05-06T09:54:34.051Z,1.70
2018-05-06T09:57:01.629Z,1.90
2018-05-06T09:59:29.202Z,1.50
2018-05-06T10:01:56.801Z,1.50
2018-05-06T10:04:24.418Z,1.90
2018-05-06T10:06:51.986Z,1.67
2018-05-06T10:09:19.562Z,1.93
2018-05-06T10:11:47.167Z,1.80
2018-05-06T10:14:14.737Z,2.00
2018-05-06T10:16:42.353Z,1.60
2018-05-06T10:19:09.925Z,1.77
2018-05-06T10:21:37.555Z,1.90
2018-05-06T10:24:05.189Z,2.70
2018-05-06T10:26:32.819Z,1.87
2018-05-06T10:29:00.427Z,3.00
2018-05-06T10:31:28.041Z,1.93
2018-05-06T10:33:55.621Z,2.50
2018-05-06T10:36:23.199Z,2.00
2018-05-06T10:38:50.809Z,1.90
2018-05-06T10:41:18.390Z,1.53
2018-05-06T10:43:46.787Z,2.10
2018-05-06T10:46:14.424Z,2.47
2018-05-06T10:48:42.083Z,1.80
2018-05-06T10:51:09.692Z,2.00
2018-05-06T10:53:37.271Z,1.80
2018-05-06T10:56:04.912Z,2.00
2018-05-06T10:58:32.488Z,2.27
2018-05-06T11:01:00.071Z,2.97
2018-05-06T11:03:27.694Z,2.97
2018-05-06T11:05:55.322Z,3.70
2018-05-06T11:08:22.897Z,1.83
2018-05-06T11:10:50.545Z,2.50
2018-05-06T11:13:18.132Z,2.33
2018-05-06T11:15:45.822Z,3.50
2018-05-06T11:18:13.434Z,2.10
2018-05-06T11:20:41.009Z,1.80
2018-05-06T11:23:08.618Z,2.80
2018-05-06T11:25:36.205Z,2.37
2018-05-06T11:28:03.787Z,1.60
2018-05-06T11:30:31.361Z,1.80
2018-05-06T11:32:59.002Z,1.70
2018-05-06T11:35:26.581Z,4.10
2018-05-06T11:37:54.166Z,3.00
2018-05-06T11:40:21.824Z,4.30
2018-05-06T11:42:49.482Z,1.70
2018-05-06T11:45:17.055Z,1.80
2018-05-06T11:47:44.631Z,1.43
2018-05-06T11:50:12.202Z,1.90
2018-05-06T11:52:39.831Z,1.53
2018-05-06T11:55:07.413Z,1.60
2018-05-06T11:57:34.991Z,1.70
2018-05-06T12:00:02.569Z,2.10
2018-05-06T12:02:30.149Z,2.43
2018-05-06T12:04:57.763Z,2.00
2018-05-06T12:07:25.339Z,1.60
2018-05-06T12:09:53.127Z,2.57
2018-05-06T12:12:20.789Z,1.97
2018-05-06T12:14:48.451Z,1.97
2018-05-06T12:17:16.116Z,1.80
2018-05-06T12:19:43.708Z,1.90
2018-05-06T12:22:11.397Z,2.63
2018-05-06T12:24:39.005Z,1.87
2018-05-06T12:27:06.581Z,2.50
2018-05-06T12:29:34.258Z,1.60
2018-05-06T12:32:01.839Z,2.10
2018-05-06T12:34:29.417Z,7.20
2018-05-06T12:36:57.114Z,1.90
2018-05-06T12:39:24.968Z,2.30
2018-05-06T12:41:54.726Z,2.03
2018-05-06T12:44:22.368Z,2.00
2018-05-06T12:46:50.108Z,1.77
2018-05-06T12:49:17.882Z,1.97
2018-05-06T12:51:45.546Z,1.87
2018-05-06T12:54:13.117Z,1.57
2018-05-06T12:56:40.769Z,2.40
2018-05-06T12:59:09.158Z,1.60
2018-05-06T13:01:36.737Z,1.40
2018-05-06T13:04:04.323Z,1.77
2018-05-06T13:06:31.898Z,1.87
2018-05-06T13:08:59.501Z,1.50
2018-05-06T13:11:27.093Z,1.47
2018-05-06T13:13:54.717Z,1.53
2018-05-06T13:16:22.293Z,1.50
2018-05-06T13:18:49.906Z,1.33
2018-05-06T13:21:17.476Z,1.57
2018-05-06T13:23:45.086Z,1.83
2018-05-06T13:26:12.724Z,1.63
2018-05-06T13:28:40.305Z,1.43
2018-05-06T13:31:07.949Z,1.30
2018-05-06T13:33:35.523Z,1.30
2018-05-06T13:36:03.130Z,1.30
2018-05-06T13:38:30.715Z,1.63
2018-05-06T13:40:58.322Z,1.40
2018-05-06T13:43:25.925Z,1.47
2018-05-06T13:45:53.541Z,2.30
2018-05-06T13:48:21.119Z,1.47
2018-05-06T13:50:48.800Z,1.67
2018-05-06T13:53:16.433Z,1.33
2018-05-06T13:55:44.011Z,1.63
2018-05-06T13:58:11.631Z,1.40
2018-05-06T14:00:39.208Z,1.37
2018-05-06T14:03:06.857Z,1.40
2018-05-06T14:05:34.465Z,1.40
2018-05-06T14:08:02.041Z,1.20
2018-05-06T14:10:29.650Z,2.07
2018-05-06T14:12:57.220Z,3.53
2018-05-06T14:15:24.793Z,1.70
2018-05-06T14:17:52.416Z,4.27
2018-05-06T14:20:20.064Z,4.37
2018-05-06T14:22:47.650Z,3.53
2018-05-06T14:25:15.279Z,8.90
2018-05-06T14:27:42.861Z,4.00
2018-05-06T14:30:10.448Z,2.27
2018-05-06T14:32:38.038Z,2.40
2018-05-06T14:35:05.691Z,1.87
2018-05-06T14:37:33.319Z,1.97
2018-05-06T14:40:20.209Z,2.50
2018-05-06T14:42:47.794Z,1.93
2018-05-06T14:45:15.484Z,1.50
2018-05-06T14:47:55.023Z,1.90
2018-05-06T14:50:22.591Z,3.67
2018-05-06T14:52:50.174Z,7.10
2018-05-06T14:55:17.773Z,6.20
2018-05-06T14:57:45.370Z,4.83
2018-05-06T15:00:12.979Z,2.97
2018-05-06T15:02:40.549Z,3.20
2018-05-06T15:05:08.129Z,10.80
2018-05-06T15:07:35.705Z,3.00
2018-05-06T15:10:03.378Z,17.73
2018-05-06T15:12:30.969Z,6.80
2018-05-06T15:14:58.593Z,4.97
2018-05-06T15:17:26.156Z,6.57
2018-05-06T15:19:53.729Z,5.50
2018-05-06T15:22:21.381Z,23.33
2018-05-06T15:24:49.047Z,3.03
2018-05-06T15:27:16.622Z,2.87
2018-05-06T15:29:44.223Z,3.17
2018-05-06T15:32:11.798Z,2.17
2018-05-06T15:34:39.425Z,1.80
2018-05-06T15:37:07.058Z,1.90
2018-05-06T15:39:34.721Z,1.93
2018-05-06T15:42:02.297Z,1.70
2018-05-06T15:44:29.881Z,7.63
2018-05-06T15:46:57.456Z,1.27
2018-05-06T15:49:25.030Z,1.50
2018-05-06T15:51:52.601Z,1.33
2018-05-06T15:54:20.182Z,1.73
2018-05-06T15:56:47.757Z,2.10
2018-05-06T15:59:15.408Z,1.60
2018-05-06T16:01:42.977Z,1.60
2018-05-06T16:04:15.254Z,1.60
2018-05-06T16:06:42.830Z,1.83
2018-05-06T16:09:10.466Z,1.40
2018-05-06T16:11:38.126Z,2.03
2018-05-06T16:14:05.741Z,1.53
2018-05-06T16:16:33.321Z,1.30
2018-05-06T16:19:00.894Z,2.60
2018-05-06T16:21:28.473Z,2.00
2018-05-06T16:23:56.045Z,1.20
2018-05-06T16:26:23.621Z,1.80
2018-05-06T16:28:51.192Z,1.40
2018-05-06T16:31:18.822Z,1.50
2018-05-06T16:33:46.485Z,1.37
2018-05-06T16:36:14.070Z,1.57
2018-05-06T16:38:41.694Z,1.40
2018-05-06T16:41:09.262Z,1.60
2018-05-06T16:43:36.833Z,2.47
2018-05-06T16:46:04.485Z,1.60
2018-05-06T16:48:32.070Z,1.70
2018-05-06T16:50:59.749Z,1.77
2018-05-06T16:53:27.364Z,1.73
2018-05-06T16:55:55.078Z,1.80
2018-05-06T16:58:22.801Z,1.77
2018-05-06T17:00:50.373Z,1.63
2018-05-06T17:03:17.968Z,1.57
2018-05-06T17:05:45.550Z,1.50
2018-05-06T17:08:13.125Z,1.80
2018-05-06T17:10:40.706Z,1.70
2018-05-06T17:13:08.370Z,1.80
2018-05-06T17:15:35.968Z,2.33
2018-05-06T17:18:03.596Z,2.03
2018-05-06T17:20:31.212Z,1.77
2018-05-06T17:22:58.829Z,1.60
2018-05-06T17:25:26.413Z,1.80
2018-05-06T17:27:53.993Z,1.40
2018-05-06T17:30:21.560Z,1.50
2018-05-06T17:32:49.161Z,2.00
2018-05-06T17:35:16.825Z,1.63
2018-05-06T17:37:44.490Z,1.80
2018-05-06T17:40:12.076Z,2.00
2018-05-06T17:42:39.715Z,1.90
2018-05-06T17:45:07.290Z,1.60
2018-05-06T17:47:34.914Z,1.63
2018-05-06T17:50:02.510Z,1.60
2018-05-06T17:52:30.154Z,1.83
2018-05-06T17:54:57.737Z,1.90
2018-05-06T17:57:25.385Z,1.93
2018-05-06T17:59:52.999Z,2.10
2018-05-06T18:02:20.613Z,2.07
2018-05-06T18:04:48.196Z,2.03
2018-05-06T18:07:15.773Z,1.80
2018-05-06T18:09:43.355Z,2.13
2018-05-06T18:12:10.933Z,2.20
2018-05-06T18:14:38.541Z,1.70
2018-05-06T18:17:06.113Z,1.97
2018-05-06T18:19:33.690Z,2.03
2018-05-06T18:22:01.270Z,2.00
2018-05-06T18:24:28.842Z,2.10
2018-05-06T18:26:56.421Z,3.20
2018-05-06T18:29:24.006Z,2.83
2018-05-06T18:31:52.185Z,2.93
2018-05-06T18:34:19.806Z,2.40
2018-05-06T18:36:47.415Z,2.17
2018-05-06T18:39:15.033Z,2.70
2018-05-06T18:41:42.612Z,3.17
2018-05-06T18:44:10.189Z,2.70
2018-05-06T18:46:37.842Z,2.77
2018-05-06T18:49:05.376Z,3.73
2018-05-06T18:51:33.003Z,6.00
2018-05-06T18:54:00.580Z,6.73
2018-05-06T18:56:28.162Z,7.23
2018-05-06T18:58:55.751Z,7.17
2018-05-06T19:01:23.450Z,10.03
2018-05-06T19:03:51.030Z,13.07
2018-05-06T19:06:18.781Z,20.67
2018-05-06T19:08:46.363Z,25.67
2018-05-06T19:11:13.941Z,24.73
2018-05-06T19:13:41.650Z,32.80
2018-05-06T19:16:09.239Z,37.60
2018-05-06T19:18:36.885Z,38.00
2018-05-06T19:21:05.426Z,34.07
2018-05-06T19:23:34.168Z,29.10
2018-05-06T19:26:02.921Z,16.60
2018-05-06T19:28:31.189Z,16.43
2018-05-06T19:30:59.092Z,15.93
2018-05-06T19:33:27.063Z,13.13
2018-05-06T19:35:54.813Z,11.83
2018-05-06T19:38:22.465Z,10.90
2018-05-06T19:40:50.120Z,10.53
2018-05-06T19:43:17.802Z,13.00
2018-05-06T19:45:45.398Z,18.80
2018-05-06T19:48:13.023Z,17.10
2018-05-06T19:50:40.662Z,14.50
2018-05-06T19:53:08.349Z,15.80
2018-05-06T19:55:35.975Z,16.97
2018-05-06T19:58:03.562Z,21.60
2018-05-06T20:00:31.977Z,18.30
2018-05-06T20:02:59.565Z,15.17
2018-05-06T20:05:27.245Z,14.37
2018-05-06T20:07:54.836Z,12.33
2018-05-06T20:10:22.416Z,9.30
2018-05-06T20:12:50.151Z,9.23
2018-05-06T20:15:17.817Z,8.13
2018-05-06T20:17:45.452Z,5.87
2018-05-06T20:20:13.033Z,4.63
2018-05-06T20:22:40.716Z,3.33
2018-05-06T20:25:08.297Z,3.60
2018-05-06T20:27:35.881Z,2.57
2018-05-06T20:30:03.458Z,3.07
2018-05-06T20:32:31.035Z,2.73
2018-05-06T20:34:58.619Z,3.07
2018-05-06T20:37:26.217Z,3.20
2018-05-06T20:39:53.840Z,3.20
2018-05-06T20:42:21.509Z,4.53
2018-05-06T20:44:49.170Z,4.13
2018-05-06T20:47:16.793Z,4.33
2018-05-06T20:49:44.372Z,4.80
2018-05-06T20:52:13.763Z,4.40
2018-05-06T20:54:41.357Z,3.90
2018-05-06T20:57:08.937Z,4.20
2018-05-06T20:59:36.564Z,3.80
2018-05-06T21:02:04.146Z,3.87
2018-05-06T21:04:31.770Z,3.77
2018-05-06T21:06:59.361Z,3.30
2018-05-06T21:09:26.943Z,3.47
2018-05-06T21:11:54.556Z,3.20
2018-05-06T21:14:22.254Z,3.30
2018-05-06T21:16:49.837Z,3.23
2018-05-06T21:19:17.440Z,3.23
2018-05-06T21:21:45.023Z,3.00
2018-05-06T21:24:12.602Z,3.90
2018-05-06T21:26:40.179Z,3.07
2018-05-06T21:29:07.762Z,2.83
2018-05-06T21:31:35.398Z,3.90
2018-05-06T21:34:02.970Z,3.87
2018-05-06T21:36:30.545Z,4.03
2018-05-06T21:38:58.287Z,4.30
2018-05-06T21:41:25.934Z,4.07
2018-05-06T21:43:53.513Z,3.60
2018-05-06T21:46:21.094Z,3.40
2018-05-06T21:48:48.666Z,3.50
2018-05-06T21:51:16.249Z,3.70
2018-05-06T21:53:43.821Z,4.27
2018-05-06T21:56:11.449Z,3.90
2018-05-06T21:58:39.080Z,4.13
2018-05-06T22:01:06.687Z,3.90
2018-05-06T22:03:34.903Z,3.97
2018-05-06T22:06:02.531Z,4.43
2018-05-06T22:08:30.111Z,4.50
2018-05-06T22:10:57.687Z,4.27
2018-05-06T22:13:25.265Z,4.30
2018-05-06T22:15:53.773Z,4.03
2018-05-06T22:18:21.353Z,4.23
2018-05-06T22:20:48.933Z,3.77
2018-05-06T22:23:16.578Z,3.87
2018-05-06T22:25:44.177Z,3.60
2018-05-06T22:28:11.754Z,4.60
2018-05-06T22:30:39.326Z,3.30
2018-05-06T22:33:06.943Z,3.50
2018-05-06T22:35:34.539Z,3.97
2018-05-06T22:38:02.129Z,3.60
2018-05-06T22:40:29.701Z,4.10
2018-05-06T22:42:57.277Z,4.10
2018-05-06T22:45:24.845Z,4.70
2018-05-06T22:47:52.429Z,3.67
2018-05-06T22:50:20.010Z,3.73
2018-05-06T22:52:47.586Z,3.47
2018-05-06T22:55:15.225Z,4.50
2018-05-06T22:57:42.804Z,4.00
2018-05-06T23:00:10.385Z,4.00
2018-05-06T23:02:37.958Z,4.13
2018-05-06T23:05:05.536Z,4.17
2018-05-06T23:07:33.128Z,4.10
2018-05-06T23:10:00.705Z,4.37
2018-05-06T23:12:28.274Z,4.40
2018-05-06T23:14:55.860Z,4.17
2018-05-06T23:17:23.437Z,3.73
2018-05-06T23:19:51.011Z,4.40
2018-05-06T23:22:18.706Z,4.47
2018-05-06T23:24:46.233Z,3.93
2018-05-06T23:27:13.811Z,4.50
2018-05-06T23:29:41.389Z,4.60
2018-05-06T23:32:08.973Z,3.90
2018-05-06T23:34:36.549Z,4.60
2018-05-06T23:37:04.178Z,3.93
2018-05-06T23:39:31.805Z,4.07
2018-05-06T23:41:59.373Z,5.03
2018-05-06T23:44:26.956Z,4.80
2018-05-06T23:46:54.532Z,5.40
2018-05-06T23:49:22.104Z,4.97
2018-05-06T23:51:49.726Z,4.20
2018-05-06T23:54:17.297Z,4.80
2018-05-06T23:56:44.874Z,4.43
2018-05-06T23:59:12.453Z,3.80
